sensor_id;sensor_type;location;lat;lon;timestamp;P1;durP1;ratioP1;P2;durP2;ratioP2
572;SDS011;271;51.114;13.780;2023-06-10T00:37:21;26.67;;;11.77;;
572;SDS011;271;51.114;13.780;2023-06-10T00:40:13;25.50;;;11.60;;
572;SDS011;271;51.114;13.780;2023-06-10T00:43:09;25.10;;;11.07;;
572;SDS011;271;51.114;13.780;2023-06-10T00:45:59;24.20;;;10.77;;
572;SDS011;271;51.114;13.780;2023-06-10T00:48:51;23.13;;;10.80;;
572;SDS011;271;51.114;13.780;2023-06-10T00:51:57;24.80;;;10.53;;
572;SDS011;271;51.114;13.780;2023-06-10T00:54:47;23.77;;;11.37;;
572;SDS011;271;51.114;13.780;2023-06-10T00:57:35;24.83;;;11.07;;
572;SDS011;271;51.114;13.780;2023-06-10T01:00:24;25.50;;;11.83;;
572;SDS011;271;51.114;13.780;2023-06-10T01:03:13;24.67;;;10.97;;
572;SDS011;271;51.114;13.780;2023-06-10T01:06:06;24.23;;;11.27;;
572;SDS011;271;51.114;13.780;2023-06-10T01:09:00;23.50;;;10.60;;
572;SDS011;271;51.114;13.780;2023-06-10T01:11:57;24.13;;;11.33;;
572;SDS011;271;51.114;13.780;2023-06-10T01:14:53;23.67;;;10.43;;
572;SDS011;271;51.114;13.780;2023-06-10T01:17:56;22.50;;;10.50;;
572;SDS011;271;51.114;13.780;2023-06-10T01:20:44;25.33;;;10.47;;
572;SDS011;271;51.114;13.780;2023-06-10T01:23:35;25.40;;;10.60;;
572;SDS011;271;51.114;13.780;2023-06-10T01:26:25;26.33;;;11.60;;
572;SDS011;271;51.114;13.780;2023-06-10T01:29:17;23.87;;;10.60;;
572;SDS011;271;51.114;13.780;2023-06-10T01:32:12;25.67;;;10.30;;
572;SDS011;271;51.114;13.780;2023-06-10T01:35:04;24.43;;;10.60;;
572;SDS011;271;51.114;13.780;2023-06-10T01:37:56;24.30;;;10.90;;
572;SDS011;271;51.114;13.780;2023-06-10T01:40:46;23.40;;;10.60;;
572;SDS011;271;51.114;13.780;2023-06-10T01:43:47;23.30;;;9.90;;
572;SDS011;271;51.114;13.780;2023-06-10T01:46:36;23.10;;;10.20;;
572;SDS011;271;51.114;13.780;2023-06-10T01:49:25;23.40;;;10.17;;
572;SDS011;271;51.114;13.780;2023-06-10T01:52:14;23.50;;;10.83;;
572;SDS011;271;51.114;13.780;2023-06-10T01:55:02;23.50;;;10.70;;
572;SDS011;271;51.114;13.780;2023-06-10T01:57:52;22.90;;;10.63;;
572;SDS011;271;51.114;13.780;2023-06-10T02:00:43;24.90;;;10.97;;
572;SDS011;271;51.114;13.780;2023-06-10T02:03:31;24.17;;;10.83;;
572;SDS011;271;51.114;13.780;2023-06-10T02:06:18;24.53;;;11.20;;
572;SDS011;271;51.114;13.780;2023-06-10T02:09:06;24.30;;;10.60;;
572;SDS011;271;51.114;13.780;2023-06-10T02:11:54;27.43;;;11.57;;
572;SDS011;271;51.114;13.780;2023-06-10T02:14:43;25.83;;;11.20;;
572;SDS011;271;51.114;13.780;2023-06-10T02:17:31;25.47;;;11.77;;
572;SDS011;271;51.114;13.780;2023-06-10T02:20:19;25.73;;;10.43;;
572;SDS011;271;51.114;13.780;2023-06-10T02:23:06;24.63;;;11.97;;
572;SDS011;271;51.114;13.780;2023-06-10T02:25:54;25.17;;;12.40;;
572;SDS011;271;51.114;13.780;2023-06-10T02:28:42;26.30;;;12.20;;
572;SDS011;271;51.114;13.780;2023-06-10T02:31:31;24.40;;;11.30;;
572;SDS011;271;51.114;13.780;2023-06-10T02:34:21;23.50;;;10.70;;
572;SDS011;271;51.114;13.780;2023-06-10T02:37:08;24.40;;;10.77;;
572;SDS011;271;51.114;13.780;2023-06-10T02:39:56;26.23;;;12.60;;
572;SDS011;271;51.114;13.780;2023-06-10T02:42:44;25.60;;;11.47;;
572;SDS011;271;51.114;13.780;2023-06-10T02:45:32;24.13;;;11.20;;
572;SDS011;271;51.114;13.780;2023-06-10T02:48:21;24.67;;;10.70;;
572;SDS011;271;51.114;13.780;2023-06-10T02:51:10;25.80;;;11.70;;
572;SDS011;271;51.114;13.780;2023-06-10T02:53:58;25.57;;;11.57;;
572;SDS011;271;51.114;13.780;2023-06-10T02:56:45;24.03;;;10.73;;
572;SDS011;271;51.114;13.780;2023-06-10T02:59:33;24.43;;;11.77;;
572;SDS011;271;51.114;13.780;2023-06-10T03:02:21;24.07;;;10.77;;
572;SDS011;271;51.114;13.780;2023-06-10T03:05:15;27.23;;;12.63;;
572;SDS011;271;51.114;13.780;2023-06-10T03:08:03;24.67;;;11.83;;
572;SDS011;271;51.114;13.780;2023-06-10T03:10:51;26.23;;;13.00;;
572;SDS011;271;51.114;13.780;2023-06-10T04:48:25;22.90;;;9.20;;
572;SDS011;271;51.114;13.780;2023-06-10T04:59:02;23.10;;;9.27;;
572;SDS011;271;51.114;13.780;2023-06-10T06:14:19;16.70;;;5.90;;
572;SDS011;271;51.114;13.780;2023-06-10T06:17:07;16.77;;;5.57;;
572;SDS011;271;51.114;13.780;2023-06-10T06:19:55;17.80;;;5.53;;
572;SDS011;271;51.114;13.780;2023-06-10T06:22:43;19.20;;;5.87;;
572;SDS011;271;51.114;13.780;2023-06-10T06:25:32;16.80;;;5.20;;
572;SDS011;271;51.114;13.780;2023-06-10T06:28:27;17.00;;;5.47;;
572;SDS011;271;51.114;13.780;2023-06-10T06:34:34;17.13;;;5.60;;
572;SDS011;271;51.114;13.780;2023-06-10T06:37:43;19.43;;;6.63;;
572;SDS011;271;51.114;13.780;2023-06-10T06:40:31;18.10;;;6.40;;
572;SDS011;271;51.114;13.780;2023-06-10T06:43:18;18.00;;;6.60;;
572;SDS011;271;51.114;13.780;2023-06-10T06:46:06;18.20;;;6.33;;
572;SDS011;271;51.114;13.780;2023-06-10T06:48:55;18.30;;;6.67;;
572;SDS011;271;51.114;13.780;2023-06-10T06:51:43;17.50;;;6.00;;
572;SDS011;271;51.114;13.780;2023-06-10T06:54:31;17.77;;;5.57;;
572;SDS011;271;51.114;13.780;2023-06-10T06:57:18;16.80;;;5.57;;
572;SDS011;271;51.114;13.780;2023-06-10T07:00:12;18.30;;;6.90;;
572;SDS011;271;51.114;13.780;2023-06-10T07:03:00;17.57;;;6.23;;
572;SDS011;271;51.114;13.780;2023-06-10T07:05:49;17.10;;;6.43;;
572;SDS011;271;51.114;13.780;2023-06-10T07:08:37;19.20;;;6.00;;
572;SDS011;271;51.114;13.780;2023-06-10T07:11:25;17.10;;;5.97;;
572;SDS011;271;51.114;13.780;2023-06-10T07:14:13;17.00;;;5.50;;
572;SDS011;271;51.114;13.780;2023-06-10T07:17:01;19.13;;;5.23;;
572;SDS011;271;51.114;13.780;2023-06-10T07:20:02;16.23;;;5.40;;
572;SDS011;271;51.114;13.780;2023-06-10T07:22:54;17.00;;;5.83;;
572;SDS011;271;51.114;13.780;2023-06-10T07:25:46;18.03;;;6.47;;
572;SDS011;271;51.114;13.780;2023-06-10T07:28:38;17.10;;;5.57;;
572;SDS011;271;51.114;13.780;2023-06-10T07:31:32;17.67;;;5.40;;
572;SDS011;271;51.114;13.780;2023-06-10T07:34:23;17.40;;;5.73;;
572;SDS011;271;51.114;13.780;2023-06-10T07:37:11;20.07;;;5.10;;
572;SDS011;271;51.114;13.780;2023-06-10T07:40:00;17.13;;;5.50;;
572;SDS011;271;51.114;13.780;2023-06-10T07:42:48;19.67;;;6.50;;
572;SDS011;271;51.114;13.780;2023-06-10T07:45:43;17.47;;;6.10;;
572;SDS011;271;51.114;13.780;2023-06-10T07:48:34;18.27;;;6.40;;
572;SDS011;271;51.114;13.780;2023-06-10T07:51:30;17.77;;;6.63;;
572;SDS011;271;51.114;13.780;2023-06-10T07:54:23;18.57;;;6.53;;
572;SDS011;271;51.114;13.780;2023-06-10T07:57:12;18.10;;;5.50;;
572;SDS011;271;51.114;13.780;2023-06-10T08:00:02;17.17;;;6.33;;
572;SDS011;271;51.114;13.780;2023-06-10T08:02:51;19.33;;;6.70;;
572;SDS011;271;51.114;13.780;2023-06-10T08:05:39;17.80;;;6.23;;
572;SDS011;271;51.114;13.780;2023-06-10T08:08:26;18.83;;;6.80;;
572;SDS011;271;51.114;13.780;2023-06-10T08:11:14;18.27;;;6.53;;
572;SDS011;271;51.114;13.780;2023-06-10T08:14:03;19.93;;;7.00;;
572;SDS011;271;51.114;13.780;2023-06-10T08:16:51;17.97;;;6.73;;
572;SDS011;271;51.114;13.780;2023-06-10T08:19:39;17.87;;;6.90;;
572;SDS011;271;51.114;13.780;2023-06-10T08:22:27;18.60;;;6.40;;
572;SDS011;271;51.114;13.780;2023-06-10T08:25:15;17.37;;;6.57;;
572;SDS011;271;51.114;13.780;2023-06-10T08:28:03;17.13;;;6.53;;
572;SDS011;271;51.114;13.780;2023-06-10T08:30:52;17.73;;;6.40;;
572;SDS011;271;51.114;13.780;2023-06-10T08:33:41;18.03;;;6.57;;
572;SDS011;271;51.114;13.780;2023-06-10T08:36:29;21.53;;;7.53;;
572;SDS011;271;51.114;13.780;2023-06-10T08:39:16;19.20;;;6.30;;
572;SDS011;271;51.114;13.780;2023-06-10T08:42:06;17.50;;;5.80;;
572;SDS011;271;51.114;13.780;2023-06-10T08:44:59;17.10;;;6.03;;
572;SDS011;271;51.114;13.780;2023-06-10T08:47:50;17.90;;;6.27;;
572;SDS011;271;51.114;13.780;2023-06-10T08:50:40;17.73;;;5.83;;
572;SDS011;271;51.114;13.780;2023-06-10T08:53:28;17.07;;;5.70;;
572;SDS011;271;51.114;13.780;2023-06-10T08:56:19;17.20;;;5.70;;
572;SDS011;271;51.114;13.780;2023-06-10T08:59:09;18.90;;;6.30;;
572;SDS011;271;51.114;13.780;2023-06-10T09:01:58;21.90;;;5.97;;
572;SDS011;271;51.114;13.780;2023-06-10T09:08:10;17.83;;;5.73;;
572;SDS011;271;51.114;13.780;2023-06-10T09:11:11;16.30;;;5.10;;
572;SDS011;271;51.114;13.780;2023-06-10T09:14:08;17.77;;;5.57;;
572;SDS011;271;51.114;13.780;2023-06-10T09:16:59;17.70;;;5.97;;
572;SDS011;271;51.114;13.780;2023-06-10T09:19:47;16.90;;;5.37;;
572;SDS011;271;51.114;13.780;2023-06-10T09:25:41;18.47;;;6.37;;
572;SDS011;271;51.114;13.780;2023-06-10T09:28:30;18.20;;;5.50;;
572;SDS011;271;51.114;13.780;2023-06-10T09:31:20;16.73;;;5.50;;
572;SDS011;271;51.114;13.780;2023-06-10T09:34:08;17.37;;;5.40;;
572;SDS011;271;51.114;13.780;2023-06-10T09:36:58;17.73;;;5.60;;
572;SDS011;271;51.114;13.780;2023-06-10T09:39:48;17.50;;;5.17;;
572;SDS011;271;51.114;13.780;2023-06-10T09:42:52;16.20;;;4.60;;
572;SDS011;271;51.114;13.780;2023-06-10T09:45:41;20.40;;;5.17;;
572;SDS011;271;51.114;13.780;2023-06-10T09:48:29;16.90;;;5.20;;
572;SDS011;271;51.114;13.780;2023-06-10T09:51:17;19.00;;;5.50;;
572;SDS011;271;51.114;13.780;2023-06-10T09:54:05;16.90;;;5.30;;
572;SDS011;271;51.114;13.780;2023-06-10T09:56:54;17.13;;;5.47;;
572;SDS011;271;51.114;13.780;2023-06-10T09:59:42;17.93;;;5.50;;
572;SDS011;271;51.114;13.780;2023-06-10T10:02:31;16.67;;;5.40;;
572;SDS011;271;51.114;13.780;2023-06-10T10:05:20;17.10;;;5.50;;
572;SDS011;271;51.114;13.780;2023-06-10T10:08:08;18.20;;;5.70;;
572;SDS011;271;51.114;13.780;2023-06-10T10:10:56;17.90;;;6.50;;
572;SDS011;271;51.114;13.780;2023-06-10T10:13:47;17.60;;;5.57;;
572;SDS011;271;51.114;13.780;2023-06-10T10:16:35;17.17;;;6.30;;
572;SDS011;271;51.114;13.780;2023-06-10T10:19:27;16.73;;;6.20;;
572;SDS011;271;51.114;13.780;2023-06-10T10:22:18;16.80;;;5.90;;
572;SDS011;271;51.114;13.780;2023-06-10T10:25:13;16.93;;;5.63;;
572;SDS011;271;51.114;13.780;2023-06-10T10:28:05;18.03;;;5.93;;
572;SDS011;271;51.114;13.780;2023-06-10T10:30:59;17.40;;;6.10;;
572;SDS011;271;51.114;13.780;2023-06-10T10:33:54;17.30;;;6.50;;
572;SDS011;271;51.114;13.780;2023-06-10T10:36:45;18.80;;;6.90;;
572;SDS011;271;51.114;13.780;2023-06-10T10:39:33;18.50;;;6.70;;
572;SDS011;271;51.114;13.780;2023-06-10T10:42:23;20.87;;;6.60;;
572;SDS011;271;51.114;13.780;2023-06-10T10:45:11;18.40;;;7.13;;
572;SDS011;271;51.114;13.780;2023-06-10T10:48:05;17.60;;;6.70;;
572;SDS011;271;51.114;13.780;2023-06-10T10:50:57;16.67;;;6.03;;
572;SDS011;271;51.114;13.780;2023-06-10T10:53:57;17.77;;;7.17;;
572;SDS011;271;51.114;13.780;2023-06-10T10:57:12;17.17;;;6.20;;
572;SDS011;271;51.114;13.780;2023-06-10T11:00:02;18.00;;;6.40;;
572;SDS011;271;51.114;13.780;2023-06-10T11:02:51;17.90;;;6.97;;
572;SDS011;271;51.114;13.780;2023-06-10T11:05:42;17.23;;;6.10;;
572;SDS011;271;51.114;13.780;2023-06-10T11:08:46;17.90;;;7.10;;
572;SDS011;271;51.114;13.780;2023-06-10T11:11:36;18.33;;;6.27;;
572;SDS011;271;51.114;13.780;2023-06-10T11:14:37;19.30;;;6.90;;
572;SDS011;271;51.114;13.780;2023-06-10T11:21:01;17.70;;;6.50;;
572;SDS011;271;51.114;13.780;2023-06-10T11:23:51;18.00;;;6.70;;
572;SDS011;271;51.114;13.780;2023-06-10T11:26:43;16.53;;;5.83;;
572;SDS011;271;51.114;13.780;2023-06-10T11:29:31;18.60;;;6.40;;
572;SDS011;271;51.114;13.780;2023-06-10T11:32:18;18.90;;;6.67;;
572;SDS011;271;51.114;13.780;2023-06-10T11:35:07;17.87;;;6.37;;
572;SDS011;271;51.114;13.780;2023-06-10T11:37:56;18.70;;;6.83;;
572;SDS011;271;51.114;13.780;2023-06-10T11:40:46;18.30;;;6.50;;
572;SDS011;271;51.114;13.780;2023-06-10T11:43:35;17.40;;;6.67;;
572;SDS011;271;51.114;13.780;2023-06-10T11:46:23;17.30;;;6.30;;
572;SDS011;271;51.114;13.780;2023-06-10T11:49:13;17.70;;;6.00;;
572;SDS011;271;51.114;13.780;2023-06-10T11:52:04;18.10;;;6.43;;
572;SDS011;271;51.114;13.780;2023-06-10T11:54:54;17.53;;;6.10;;
572;SDS011;271;51.114;13.780;2023-06-10T11:57:42;17.23;;;6.13;;
572;SDS011;271;51.114;13.780;2023-06-10T12:00:30;19.47;;;7.03;;
572;SDS011;271;51.114;13.780;2023-06-10T12:03:18;18.40;;;6.70;;
572;SDS011;271;51.114;13.780;2023-06-10T12:06:09;17.93;;;6.50;;
572;SDS011;271;51.114;13.780;2023-06-10T12:08:57;17.10;;;6.27;;
572;SDS011;271;51.114;13.780;2023-06-10T12:11:49;18.33;;;6.60;;
572;SDS011;271;51.114;13.780;2023-06-10T12:14:53;17.30;;;6.40;;
572;SDS011;271;51.114;13.780;2023-06-10T12:17:42;19.20;;;6.77;;
572;SDS011;271;51.114;13.780;2023-06-10T12:20:31;18.57;;;6.90;;
572;SDS011;271;51.114;13.780;2023-06-10T12:23:23;17.33;;;6.00;;
572;SDS011;271;51.114;13.780;2023-06-10T12:26:13;17.47;;;6.30;;
572;SDS011;271;51.114;13.780;2023-06-10T12:29:03;16.83;;;5.10;;
572;SDS011;271;51.114;13.780;2023-06-10T12:32:03;17.63;;;5.70;;
572;SDS011;271;51.114;13.780;2023-06-10T12:35:02;18.80;;;6.50;;
572;SDS011;271;51.114;13.780;2023-06-10T12:37:54;17.37;;;6.00;;
572;SDS011;271;51.114;13.780;2023-06-10T12:40:43;18.80;;;6.67;;
572;SDS011;271;51.114;13.780;2023-06-10T12:43:31;18.13;;;5.77;;
572;SDS011;271;51.114;13.780;2023-06-10T12:46:21;17.17;;;5.70;;
572;SDS011;271;51.114;13.780;2023-06-10T12:49:18;17.83;;;6.43;;
572;SDS011;271;51.114;13.780;2023-06-10T12:52:06;18.13;;;6.83;;
572;SDS011;271;51.114;13.780;2023-06-10T12:54:54;18.30;;;6.20;;
572;SDS011;271;51.114;13.780;2023-06-10T12:57:49;18.17;;;6.57;;
572;SDS011;271;51.114;13.780;2023-06-10T13:00:37;17.57;;;6.37;;
572;SDS011;271;51.114;13.780;2023-06-10T13:03:37;18.03;;;6.73;;
572;SDS011;271;51.114;13.780;2023-06-10T13:06:37;17.30;;;6.13;;
572;SDS011;271;51.114;13.780;2023-06-10T13:09:27;18.17;;;5.80;;
572;SDS011;271;51.114;13.780;2023-06-10T13:12:16;18.40;;;6.70;;
572;SDS011;271;51.114;13.780;2023-06-10T13:15:17;17.67;;;5.73;;
572;SDS011;271;51.114;13.780;2023-06-10T13:18:05;17.37;;;5.90;;
572;SDS011;271;51.114;13.780;2023-06-10T13:20:58;16.83;;;4.80;;
572;SDS011;271;51.114;13.780;2023-06-10T13:23:46;17.00;;;5.00;;
572;SDS011;271;51.114;13.780;2023-06-10T13:26:34;18.63;;;5.43;;
572;SDS011;271;51.114;13.780;2023-06-10T13:29:22;18.00;;;5.20;;
572;SDS011;271;51.114;13.780;2023-06-10T13:32:10;16.70;;;4.90;;
572;SDS011;271;51.114;13.780;2023-06-10T13:34:57;17.20;;;5.13;;
572;SDS011;271;51.114;13.780;2023-06-10T13:37:46;16.33;;;4.90;;
572;SDS011;271;51.114;13.780;2023-06-10T13:40:34;17.20;;;5.10;;
572;SDS011;271;51.114;13.780;2023-06-10T13:43:25;16.70;;;4.50;;
572;SDS011;271;51.114;13.780;2023-06-10T13:46:15;17.20;;;4.67;;
572;SDS011;271;51.114;13.780;2023-06-10T13:49:03;15.80;;;4.03;;
572;SDS011;271;51.114;13.780;2023-06-10T13:51:51;16.67;;;4.90;;
572;SDS011;271;51.114;13.780;2023-06-10T13:54:40;16.50;;;4.80;;
572;SDS011;271;51.114;13.780;2023-06-10T13:57:28;18.00;;;4.60;;
572;SDS011;271;51.114;13.780;2023-06-10T14:00:16;17.60;;;4.30;;
572;SDS011;271;51.114;13.780;2023-06-10T14:03:05;16.70;;;4.40;;
572;SDS011;271;51.114;13.780;2023-06-10T14:05:53;16.47;;;4.30;;
572;SDS011;271;51.114;13.780;2023-06-10T14:08:40;18.70;;;5.00;;
572;SDS011;271;51.114;13.780;2023-06-10T14:11:30;16.23;;;4.43;;
572;SDS011;271;51.114;13.780;2023-06-10T14:14:18;17.73;;;4.77;;
572;SDS011;271;51.114;13.780;2023-06-10T14:17:06;16.23;;;4.17;;
572;SDS011;271;51.114;13.780;2023-06-10T14:19:54;17.07;;;4.67;;
572;SDS011;271;51.114;13.780;2023-06-10T14:22:42;17.30;;;4.40;;
572;SDS011;271;51.114;13.780;2023-06-10T14:25:29;17.27;;;4.50;;
572;SDS011;271;51.114;13.780;2023-06-10T14:28:19;16.17;;;4.20;;
572;SDS011;271;51.114;13.780;2023-06-10T14:31:30;19.50;;;4.10;;
572;SDS011;271;51.114;13.780;2023-06-10T14:34:32;15.77;;;4.20;;
572;SDS011;271;51.114;13.780;2023-06-10T14:37:20;15.70;;;4.47;;
572;SDS011;271;51.114;13.780;2023-06-10T14:40:08;15.83;;;4.37;;
572;SDS011;271;51.114;13.780;2023-06-10T14:42:57;16.70;;;4.90;;
572;SDS011;271;51.114;13.780;2023-06-10T14:45:51;18.43;;;4.57;;
572;SDS011;271;51.114;13.780;2023-06-10T14:48:41;18.93;;;4.60;;
572;SDS011;271;51.114;13.780;2023-06-10T14:51:29;16.10;;;4.50;;
572;SDS011;271;51.114;13.780;2023-06-10T14:54:20;16.70;;;4.80;;
572;SDS011;271;51.114;13.780;2023-06-10T14:57:08;18.17;;;5.40;;
572;SDS011;271;51.114;13.780;2023-06-10T15:00:10;16.87;;;5.07;;
572;SDS011;271;51.114;13.780;2023-06-10T15:03:07;16.20;;;5.40;;
572;SDS011;271;51.114;13.780;2023-06-10T15:05:54;15.77;;;4.80;;
572;SDS011;271;51.114;13.780;2023-06-10T15:08:42;18.40;;;5.13;;
572;SDS011;271;51.114;13.780;2023-06-10T15:11:32;17.50;;;5.63;;
572;SDS011;271;51.114;13.780;2023-06-10T15:14:20;18.00;;;6.30;;
572;SDS011;271;51.114;13.780;2023-06-10T15:17:08;21.00;;;6.50;;
572;SDS011;271;51.114;13.780;2023-06-10T15:20:00;17.80;;;5.50;;
572;SDS011;271;51.114;13.780;2023-06-10T15:22:48;16.67;;;6.03;;
572;SDS011;271;51.114;13.780;2023-06-10T15:25:36;18.00;;;5.67;;
572;SDS011;271;51.114;13.780;2023-06-10T15:28:26;17.40;;;5.23;;
572;SDS011;271;51.114;13.780;2023-06-10T15:31:14;17.97;;;6.00;;
572;SDS011;271;51.114;13.780;2023-06-10T15:34:01;17.73;;;5.90;;
572;SDS011;271;51.114;13.780;2023-06-10T15:36:51;17.37;;;6.00;;
572;SDS011;271;51.114;13.780;2023-06-10T15:39:38;16.97;;;5.70;;
572;SDS011;271;51.114;13.780;2023-06-10T15:42:26;17.20;;;6.30;;
572;SDS011;271;51.114;13.780;2023-06-10T15:45:14;18.30;;;6.47;;
572;SDS011;271;51.114;13.780;2023-06-10T15:48:02;16.80;;;5.80;;
572;SDS011;271;51.114;13.780;2023-06-10T15:50:50;17.20;;;5.73;;
572;SDS011;271;51.114;13.780;2023-06-10T15:53:39;17.63;;;6.17;;
572;SDS011;271;51.114;13.780;2023-06-10T15:56:26;18.27;;;5.90;;
572;SDS011;271;51.114;13.780;2023-06-10T15:59:14;20.57;;;6.13;;
572;SDS011;271;51.114;13.780;2023-06-10T16:02:02;18.53;;;5.80;;
572;SDS011;271;51.114;13.780;2023-06-10T16:04:50;17.37;;;6.40;;
572;SDS011;271;51.114;13.780;2023-06-10T16:07:38;18.17;;;5.97;;
572;SDS011;271;51.114;13.780;2023-06-10T16:10:28;17.70;;;6.87;;
572;SDS011;271;51.114;13.780;2023-06-10T16:13:15;17.10;;;5.67;;
572;SDS011;271;51.114;13.780;2023-06-10T16:16:03;19.87;;;6.40;;
572;SDS011;271;51.114;13.780;2023-06-10T16:18:51;18.80;;;6.57;;
572;SDS011;271;51.114;13.780;2023-06-10T16:21:39;17.50;;;5.90;;
572;SDS011;271;51.114;13.780;2023-06-10T16:24:27;16.50;;;5.80;;
572;SDS011;271;51.114;13.780;2023-06-10T16:27:16;17.30;;;6.03;;
572;SDS011;271;51.114;13.780;2023-06-10T16:30:05;18.40;;;6.73;;
572;SDS011;271;51.114;13.780;2023-06-10T16:32:54;18.47;;;5.97;;
572;SDS011;271;51.114;13.780;2023-06-10T16:35:41;19.90;;;5.83;;
572;SDS011;271;51.114;13.780;2023-06-10T16:38:29;21.30;;;7.70;;
572;SDS011;271;51.114;13.780;2023-06-10T16:41:17;17.00;;;5.60;;
572;SDS011;271;51.114;13.780;2023-06-10T16:44:06;17.77;;;6.40;;
572;SDS011;271;51.114;13.780;2023-06-10T16:46:54;16.73;;;5.60;;
572;SDS011;271;51.114;13.780;2023-06-10T16:49:44;16.57;;;5.50;;
572;SDS011;271;51.114;13.780;2023-06-10T16:52:32;17.53;;;5.80;;
572;SDS011;271;51.114;13.780;2023-06-10T16:55:19;17.67;;;6.00;;
572;SDS011;271;51.114;13.780;2023-06-10T16:58:07;17.00;;;6.07;;
572;SDS011;271;51.114;13.780;2023-06-10T17:00:57;16.90;;;5.70;;
572;SDS011;271;51.114;13.780;2023-06-10T17:03:51;17.20;;;5.90;;
572;SDS011;271;51.114;13.780;2023-06-10T17:06:38;18.13;;;6.17;;
572;SDS011;271;51.114;13.780;2023-06-10T17:09:26;19.60;;;6.83;;
572;SDS011;271;51.114;13.780;2023-06-10T17:12:14;18.57;;;6.50;;
572;SDS011;271;51.114;13.780;2023-06-10T17:15:02;18.47;;;7.23;;
572;SDS011;271;51.114;13.780;2023-06-10T17:17:51;17.30;;;5.90;;
572;SDS011;271;51.114;13.780;2023-06-10T17:20:39;17.70;;;5.97;;
572;SDS011;271;51.114;13.780;2023-06-10T17:23:27;18.10;;;5.80;;
572;SDS011;271;51.114;13.780;2023-06-10T17:26:14;20.00;;;6.57;;
572;SDS011;271;51.114;13.780;2023-06-10T17:29:02;18.20;;;5.40;;
572;SDS011;271;51.114;13.780;2023-06-10T17:31:50;17.70;;;5.50;;
572;SDS011;271;51.114;13.780;2023-06-10T17:34:39;18.40;;;5.90;;
572;SDS011;271;51.114;13.780;2023-06-10T17:37:27;17.50;;;5.40;;
572;SDS011;271;51.114;13.780;2023-06-10T17:40:16;18.80;;;5.73;;
572;SDS011;271;51.114;13.780;2023-06-10T17:43:04;19.30;;;6.57;;
572;SDS011;271;51.114;13.780;2023-06-10T17:45:51;16.80;;;5.53;;
572;SDS011;271;51.114;13.780;2023-06-10T17:48:39;18.00;;;6.10;;
572;SDS011;271;51.114;13.780;2023-06-10T17:51:28;18.20;;;6.60;;
572;SDS011;271;51.114;13.780;2023-06-10T17:54:16;18.20;;;6.53;;
572;SDS011;271;51.114;13.780;2023-06-10T17:57:03;18.97;;;6.70;;
572;SDS011;271;51.114;13.780;2023-06-10T17:59:52;18.10;;;6.47;;
572;SDS011;271;51.114;13.780;2023-06-10T18:02:39;18.10;;;6.67;;
572;SDS011;271;51.114;13.780;2023-06-10T18:05:27;18.50;;;6.70;;
572;SDS011;271;51.114;13.780;2023-06-10T18:08:16;17.47;;;5.90;;
572;SDS011;271;51.114;13.780;2023-06-10T18:11:05;18.03;;;6.17;;
572;SDS011;271;51.114;13.780;2023-06-10T18:13:52;17.97;;;6.27;;
572;SDS011;271;51.114;13.780;2023-06-10T18:16:40;18.30;;;6.40;;
572;SDS011;271;51.114;13.780;2023-06-10T18:19:28;19.50;;;6.20;;
572;SDS011;271;51.114;13.780;2023-06-10T18:22:16;18.50;;;6.70;;
572;SDS011;271;51.114;13.780;2023-06-10T18:25:05;17.50;;;6.50;;
572;SDS011;271;51.114;13.780;2023-06-10T18:27:53;19.23;;;7.03;;
572;SDS011;271;51.114;13.780;2023-06-10T18:30:41;18.50;;;7.27;;
572;SDS011;271;51.114;13.780;2023-06-10T18:33:29;17.77;;;7.17;;
572;SDS011;271;51.114;13.780;2023-06-10T18:36:17;18.63;;;6.83;;
572;SDS011;271;51.114;13.780;2023-06-10T18:39:05;18.30;;;6.60;;
572;SDS011;271;51.114;13.780;2023-06-10T18:41:54;18.60;;;7.33;;
572;SDS011;271;51.114;13.780;2023-06-10T18:44:42;19.30;;;8.00;;
572;SDS011;271;51.114;13.780;2023-06-10T18:47:30;19.70;;;8.10;;
572;SDS011;271;51.114;13.780;2023-06-10T18:50:18;19.07;;;7.53;;
572;SDS011;271;51.114;13.780;2023-06-10T18:53:06;19.80;;;7.50;;
572;SDS011;271;51.114;13.780;2023-06-10T18:55:53;18.70;;;7.50;;
572;SDS011;271;51.114;13.780;2023-06-10T18:58:43;18.37;;;7.13;;
572;SDS011;271;51.114;13.780;2023-06-10T19:01:32;19.77;;;7.73;;
572;SDS011;271;51.114;13.780;2023-06-10T19:04:20;20.70;;;8.20;;
572;SDS011;271;51.114;13.780;2023-06-10T19:07:08;19.20;;;8.10;;
572;SDS011;271;51.114;13.780;2023-06-10T19:09:55;19.90;;;8.40;;
572;SDS011;271;51.114;13.780;2023-06-10T19:12:43;20.50;;;8.80;;
572;SDS011;271;51.114;13.780;2023-06-10T19:15:33;19.10;;;8.10;;
572;SDS011;271;51.114;13.780;2023-06-10T19:18:20;21.17;;;8.30;;
572;SDS011;271;51.114;13.780;2023-06-10T19:21:08;23.50;;;8.33;;
572;SDS011;271;51.114;13.780;2023-06-10T19:23:56;19.80;;;7.90;;
572;SDS011;271;51.114;13.780;2023-06-10T19:26:45;19.50;;;7.97;;
572;SDS011;271;51.114;13.780;2023-06-10T19:29:33;20.90;;;7.60;;
572;SDS011;271;51.114;13.780;2023-06-10T19:32:22;20.20;;;8.40;;
572;SDS011;271;51.114;13.780;2023-06-10T19:35:10;19.80;;;8.90;;
572;SDS011;271;51.114;13.780;2023-06-10T19:37:57;20.03;;;9.43;;
572;SDS011;271;51.114;13.780;2023-06-10T19:40:45;19.10;;;7.90;;
572;SDS011;271;51.114;13.780;2023-06-10T19:43:33;21.10;;;7.63;;
572;SDS011;271;51.114;13.780;2023-06-10T19:46:21;19.70;;;8.33;;
572;SDS011;271;51.114;13.780;2023-06-10T19:49:10;19.87;;;9.20;;
572;SDS011;271;51.114;13.780;2023-06-10T19:51:57;21.07;;;9.00;;
572;SDS011;271;51.114;13.780;2023-06-10T19:54:47;21.23;;;9.03;;
572;SDS011;271;51.114;13.780;2023-06-10T19:57:35;19.70;;;7.53;;
572;SDS011;271;51.114;13.780;2023-06-10T20:00:23;25.17;;;10.07;;
572;SDS011;271;51.114;13.780;2023-06-10T20:03:11;21.37;;;10.10;;
572;SDS011;271;51.114;13.780;2023-06-10T20:06:00;19.67;;;9.00;;
572;SDS011;271;51.114;13.780;2023-06-10T20:08:48;19.67;;;9.27;;
572;SDS011;271;51.114;13.780;2023-06-10T20:11:36;19.97;;;8.50;;
572;SDS011;271;51.114;13.780;2023-06-10T20:14:24;21.17;;;8.73;;
572;SDS011;271;51.114;13.780;2023-06-10T20:17:12;21.17;;;9.20;;
572;SDS011;271;51.114;13.780;2023-06-10T20:19:59;20.80;;;8.23;;
572;SDS011;271;51.114;13.780;2023-06-10T20:22:49;19.20;;;7.53;;
572;SDS011;271;51.114;13.780;2023-06-10T20:25:36;19.43;;;8.80;;
572;SDS011;271;51.114;13.780;2023-06-10T20:28:25;19.30;;;8.90;;
572;SDS011;271;51.114;13.780;2023-06-10T20:31:12;21.03;;;9.20;;
572;SDS011;271;51.114;13.780;2023-06-10T20:34:00;20.20;;;8.90;;
572;SDS011;271;51.114;13.780;2023-06-10T20:36:48;21.17;;;9.17;;
572;SDS011;271;51.114;13.780;2023-06-10T20:39:37;32.60;;;11.60;;
572;SDS011;271;51.114;13.780;2023-06-10T20:42:25;21.67;;;9.23;;
572;SDS011;271;51.114;13.780;2023-06-10T20:45:13;21.20;;;9.20;;
572;SDS011;271;51.114;13.780;2023-06-10T20:48:01;22.47;;;10.23;;
572;SDS011;271;51.114;13.780;2023-06-10T20:50:49;22.27;;;10.67;;
572;SDS011;271;51.114;13.780;2023-06-10T20:53:37;21.53;;;8.80;;
572;SDS011;271;51.114;13.780;2023-06-10T20:56:26;19.10;;;7.63;;
572;SDS011;271;51.114;13.780;2023-06-10T20:59:14;20.00;;;7.30;;
572;SDS011;271;51.114;13.780;2023-06-10T21:02:02;18.90;;;7.60;;
572;SDS011;271;51.114;13.780;2023-06-10T21:04:49;18.40;;;6.70;;
572;SDS011;271;51.114;13.780;2023-06-10T21:07:38;18.30;;;6.50;;
572;SDS011;271;51.114;13.780;2023-06-10T21:10:25;20.10;;;6.57;;
572;SDS011;271;51.114;13.780;2023-06-10T21:13:15;19.00;;;7.20;;
572;SDS011;271;51.114;13.780;2023-06-10T21:16:02;19.73;;;5.70;;